Time;durP1;ratioP1;P1;durP2;ratioP2;P2;SDS_P1;SDS_P2;PMS_P1;PMS_P2;Temp;Humidity;BMP_temperature;BMP_pressure;BME280_temperature;BME280_humidity;BME280_pressure;Samples;Min_cycle;Max_cycle;Signal;HPM_P1;HPM_P2
2022/01/05 00:02:24;;;;;;;;;;;23.00;30.60;;;;;;5122242;28;19924;-62
2022/01/05 00:04:50;;;;;;;;;;;22.90;30.80;;;;;;5120124;28;19933;-56
2022/01/05 00:07:16;;;;;;;;;;;22.80;31.00;;;;;;5125362;28;20320;-58
2022/01/05 00:09:43;;;;;;;;;;;23.00;30.60;;;;;;5119798;28;19941;-61
2022/01/05 00:12:09;;;;;;;;;;;22.80;30.80;;;;;;5116117;28;19930;-60
2022/01/05 00:14:35;;;;;;;;;;;22.80;30.80;;;;;;5125107;28;19923;-58
2022/01/05 00:17:01;;;;;;;;;;;23.00;30.50;;;;;;5119512;28;19976;-63
2022/01/05 00:19:27;;;;;;;;;;;23.00;30.40;;;;;;5119560;28;19931;-57
2022/01/05 00:21:53;;;;;;;;;;;23.00;30.40;;;;;;5125230;28;19931;-59
2022/01/05 00:24:18;;;;;;;;;;;23.00;30.40;;;;;;5119606;28;19932;-60
2022/01/05 00:26:44;;;;;;;;;;;23.00;30.30;;;;;;5125104;28;19933;-57
2022/01/05 00:29:10;;;;;;;;;;;23.10;30.20;;;;;;5120135;28;19932;-57
2022/01/05 00:31:36;;;;;;;;;;;22.60;30.80;;;;;;5119693;28;19924;-58
2022/01/05 00:34:02;;;;;;;;;;;22.80;30.40;;;;;;5124641;28;19927;-58
2022/01/05 00:36:27;;;;;;;;;;;22.90;30.30;;;;;;5118972;28;20170;-57
2022/01/05 00:38:53;;;;;;;;;;;23.00;30.30;;;;;;5119529;28;19931;-60
2022/01/05 00:41:19;;;;;;;;;;;23.00;30.10;;;;;;5106052;28;20395;-58
2022/01/05 00:43:45;;;;;;;;;;;23.00;30.30;;;;;;5119494;28;19972;-60
2022/01/05 00:46:10;;;;;;;;;;;23.10;30.10;;;;;;5104554;28;19927;-58
2022/01/05 00:48:36;;;;;;;;;;;22.90;30.40;;;;;;5119295;28;19932;-58
2022/01/05 00:51:03;;;;;;;;;;;23.00;30.20;;;;;;5100972;28;19927;-62
2022/01/05 00:53:29;;;;;;;;;;;22.80;30.40;;;;;;5124630;28;19927;-59
2022/01/05 00:55:55;;;;;;;;;;;22.80;30.40;;;;;;5118687;28;19923;-59
2022/01/05 00:58:20;;;;;;;;;;;22.90;30.10;;;;;;5119607;28;19923;-58
2022/01/05 01:00:46;;;;;;;;;;;23.00;30.00;;;;;;5127755;27;19931;-61
2022/01/05 01:03:12;;;;;;;;;;;23.10;30.00;;;;;;5123274;28;19935;-58
2022/01/05 01:05:38;;;;;;;;;;;22.80;30.20;;;;;;5127866;28;20317;-57
2022/01/05 01:08:04;;;;;;;;;;;22.90;30.00;;;;;;5122475;28;19969;-57
2022/01/05 01:10:29;;;;;;;;;;;23.00;29.90;;;;;;5122440;28;19930;-64
2022/01/05 01:12:55;;;;;;;;;;;23.00;29.90;;;;;;5127795;28;20321;-57
2022/01/05 01:15:21;;;;;;;;;;;23.00;30.00;;;;;;5122549;28;19928;-61
2022/01/05 01:17:47;;;;;;;;;;;23.00;29.90;;;;;;5122911;28;20188;-59
2022/01/05 01:20:12;;;;;;;;;;;23.10;29.90;;;;;;5128151;28;19927;-63
2022/01/05 01:22:38;;;;;;;;;;;23.00;29.80;;;;;;5122998;28;19930;-59
2022/01/05 01:25:04;;;;;;;;;;;22.80;30.10;;;;;;5127248;28;19946;-59
2022/01/05 01:27:30;;;;;;;;;;;23.00;29.80;;;;;;5123626;28;19927;-59
2022/01/05 01:29:56;;;;;;;;;;;23.00;29.70;;;;;;5122096;28;19985;-58
2022/01/05 01:32:22;;;;;;;;;;;22.90;29.80;;;;;;5127235;28;19949;-60
2022/01/05 01:34:47;;;;;;;;;;;23.00;29.80;;;;;;5122509;28;20370;-58
2022/01/05 01:37:13;;;;;;;;;;;22.90;29.80;;;;;;5122305;28;20330;-58
2022/01/05 01:39:39;;;;;;;;;;;23.00;29.90;;;;;;5127667;28;19991;-57
2022/01/05 01:42:05;;;;;;;;;;;23.00;29.90;;;;;;5122188;28;19927;-58
2022/01/05 01:44:31;;;;;;;;;;;23.00;29.90;;;;;;5124563;28;19977;-59
2022/01/05 01:46:57;;;;;;;;;;;23.00;29.80;;;;;;5125041;28;19931;-60
2022/01/05 01:49:22;;;;;;;;;;;22.90;29.90;;;;;;5121886;28;20012;-57
2022/01/05 01:51:48;;;;;;;;;;;22.90;29.80;;;;;;5108946;28;19949;-60
2022/01/05 01:54:14;;;;;;;;;;;23.10;29.60;;;;;;5122479;28;19928;-60
2022/01/05 01:56:40;;;;;;;;;;;22.80;29.80;;;;;;5121836;28;19924;-56
2022/01/05 01:59:06;;;;;;;;;;;22.80;29.80;;;;;;5107310;28;20388;-59
2022/01/05 02:01:31;;;;;;;;;;;23.00;29.60;;;;;;5103199;28;20345;-64
2022/01/05 02:03:57;;;;;;;;;;;23.00;29.60;;;;;;5122088;28;19959;-59
2022/01/05 02:06:23;;;;;;;;;;;22.90;29.80;;;;;;5126672;28;19977;-60
2022/01/05 02:08:49;;;;;;;;;;;22.80;30.00;;;;;;5117305;28;19930;-55
2022/01/05 02:11:15;;;;;;;;;;;22.70;30.20;;;;;;5126169;27;19931;-60
2022/01/05 02:13:40;;;;;;;;;;;22.90;29.80;;;;;;5121779;28;19935;-59
2022/01/05 02:16:07;;;;;;;;;;;23.00;29.60;;;;;;5121690;28;20370;-56
2022/01/05 02:20:58;;;;;;;;;;;23.10;29.40;;;;;;5121426;28;19924;-57
2022/01/05 02:23:24;;;;;;;;;;;22.90;29.70;;;;;;5121822;28;19924;-63
2022/01/05 02:25:50;;;;;;;;;;;22.90;29.80;;;;;;5126888;28;19930;-57
2022/01/05 02:28:15;;;;;;;;;;;22.90;29.90;;;;;;5120845;28;19987;-58
2022/01/05 02:30:41;;;;;;;;;;;23.10;29.70;;;;;;5127230;28;19924;-60
2022/01/05 02:33:07;;;;;;;;;;;22.90;29.80;;;;;;5121523;28;19924;-59
2022/01/05 02:35:33;;;;;;;;;;;23.00;29.70;;;;;;5121844;28;19934;-59
2022/01/05 02:37:59;;;;;;;;;;;22.90;29.90;;;;;;5126605;28;19963;-56
2022/01/05 02:40:25;;;;;;;;;;;22.70;30.30;;;;;;5121256;28;19923;-56
2022/01/05 02:42:56;;;;;;;;;;;22.90;29.90;;;;;;5121068;28;20150;-57
2022/01/05 02:45:22;;;;;;;;;;;23.00;29.70;;;;;;5126413;28;19928;-59
2022/01/05 02:47:48;;;;;;;;;;;22.90;29.70;;;;;;5121014;28;19929;-60
2022/01/05 02:50:14;;;;;;;;;;;23.00;29.70;;;;;;5106699;28;19963;-58
2022/01/05 02:52:40;;;;;;;;;;;22.80;29.80;;;;;;5122336;28;19927;-61
2022/01/05 02:55:06;;;;;;;;;;;23.10;29.60;;;;;;5120811;28;20318;-54
2022/01/05 02:57:32;;;;;;;;;;;22.60;30.20;;;;;;5126314;28;20018;-57
2022/01/05 02:59:57;;;;;;;;;;;22.80;29.80;;;;;;5121000;28;20401;-62
2022/01/05 03:02:23;;;;;;;;;;;22.90;29.70;;;;;;5120802;28;19930;-58
2022/01/05 03:04:49;;;;;;;;;;;22.90;29.80;;;;;;5125904;28;19932;-63
2022/01/05 03:07:16;;;;;;;;;;;23.00;29.70;;;;;;5120977;28;19923;-59
2022/01/05 03:09:42;;;;;;;;;;;23.00;29.70;;;;;;5123093;28;19972;-62
2022/01/05 03:12:08;;;;;;;;;;;22.70;30.40;;;;;;5124621;28;20454;-59
2022/01/05 03:14:34;;;;;;;;;;;22.80;30.30;;;;;;5120376;28;19984;-56
2022/01/05 03:16:59;;;;;;;;;;;23.00;30.10;;;;;;5126018;28;19927;-60
2022/01/05 03:19:25;;;;;;;;;;;23.10;30.10;;;;;;5100162;28;19974;-52
2022/01/05 03:21:51;;;;;;;;;;;22.80;30.40;;;;;;5119879;27;20389;-59
2022/01/05 03:24:17;;;;;;;;;;;23.00;30.00;;;;;;5125858;28;19950;-59
2022/01/05 03:26:42;;;;;;;;;;;23.00;29.90;;;;;;5120806;28;19977;-58
2022/01/05 03:29:08;;;;;;;;;;;22.90;30.30;;;;;;5120424;28;20101;-56
2022/01/05 03:31:34;;;;;;;;;;;22.90;30.10;;;;;;5125957;28;19927;-62
2022/01/05 03:34:00;;;;;;;;;;;23.00;30.20;;;;;;5102061;28;20422;-57
2022/01/05 03:36:26;;;;;;;;;;;22.80;30.30;;;;;;5125718;28;19932;-60
2022/01/05 03:38:52;;;;;;;;;;;23.00;30.20;;;;;;5120308;28;19930;-59
2022/01/05 03:41:17;;;;;;;;;;;23.00;30.10;;;;;;5120065;28;19927;-62
2022/01/05 03:43:43;;;;;;;;;;;23.00;30.10;;;;;;5126116;28;19927;-60
2022/01/05 03:46:09;;;;;;;;;;;23.00;30.00;;;;;;5120394;28;20026;-63
2022/01/05 03:48:35;;;;;;;;;;;23.00;30.00;;;;;;5120366;28;19923;-57
2022/01/05 03:51:00;;;;;;;;;;;23.10;29.70;;;;;;5125770;28;19923;-61
2022/01/05 03:53:26;;;;;;;;;;;23.00;29.80;;;;;;5120194;28;20374;-59
2022/01/05 03:55:52;;;;;;;;;;;23.00;29.70;;;;;;5125335;28;20021;-60
2022/01/05 03:58:18;;;;;;;;;;;23.10;29.50;;;;;;5119857;28;19932;-61
2022/01/05 04:00:44;;;;;;;;;;;23.00;29.60;;;;;;5119739;28;20374;-58
2022/01/05 04:03:10;;;;;;;;;;;22.90;29.70;;;;;;5125636;28;19942;-58
2022/01/05 04:05:36;;;;;;;;;;;23.00;29.70;;;;;;5119892;28;20356;-58
2022/01/05 04:08:02;;;;;;;;;;;22.90;29.70;;;;;;5120240;28;19923;-58
2022/01/05 04:10:28;;;;;;;;;;;23.00;29.40;;;;;;5125349;28;20015;-59
2022/01/05 04:12:54;;;;;;;;;;;23.00;29.60;;;;;;5120044;28;19938;-58
2022/01/05 04:15:19;;;;;;;;;;;23.00;29.50;;;;;;5125312;28;19923;-60
2022/01/05 04:17:45;;;;;;;;;;;23.00;29.40;;;;;;5119705;28;19930;-61
2022/01/05 04:20:11;;;;;;;;;;;22.90;29.50;;;;;;5100835;28;19939;-59
2022/01/05 04:22:37;;;;;;;;;;;22.90;29.50;;;;;;5125488;28;20437;-57
2022/01/05 04:25:03;;;;;;;;;;;22.80;29.50;;;;;;5119908;28;19931;-58
2022/01/05 04:27:29;;;;;;;;;;;22.90;29.40;;;;;;5100879;28;20096;-62
2022/01/05 04:29:55;;;;;;;;;;;23.00;29.20;;;;;;5125067;28;19927;-56
2022/01/05 04:32:20;;;;;;;;;;;23.00;29.20;;;;;;5119798;28;20388;-62
2022/01/05 04:34:46;;;;;;;;;;;23.10;29.20;;;;;;5125251;27;19923;-59
2022/01/05 04:37:12;;;;;;;;;;;23.00;29.40;;;;;;5124535;28;19927;-61
2022/01/05 04:39:38;;;;;;;;;;;23.10;29.10;;;;;;5123780;28;20014;-59
2022/01/05 04:42:04;;;;;;;;;;;23.00;29.40;;;;;;5128980;28;20037;-62
2022/01/05 04:44:29;;;;;;;;;;;23.00;29.40;;;;;;5123694;28;19927;-56
2022/01/05 04:46:55;;;;;;;;;;;22.80;29.60;;;;;;5123032;28;19923;-61
2022/01/05 04:49:21;;;;;;;;;;;23.00;29.40;;;;;;5110085;28;19924;-62
2022/01/05 04:51:47;;;;;;;;;;;23.00;29.40;;;;;;5123011;28;19923;-62
2022/01/05 04:54:13;;;;;;;;;;;22.90;29.60;;;;;;5106138;28;19924;-59
2022/01/05 04:56:39;;;;;;;;;;;23.10;29.50;;;;;;5126788;28;20206;-62
2022/01/05 04:59:04;;;;;;;;;;;23.10;29.50;;;;;;5123182;28;20013;-61
2022/01/05 05:01:30;;;;;;;;;;;23.10;29.60;;;;;;5128492;28;19931;-58
2022/01/05 05:03:56;;;;;;;;;;;23.00;29.70;;;;;;5122994;28;19930;-59
2022/01/05 05:06:22;;;;;;;;;;;23.00;29.70;;;;;;5122995;28;19928;-55
2022/01/05 05:08:48;;;;;;;;;;;23.00;29.80;;;;;;5128154;28;19930;-58
2022/01/05 05:11:14;;;;;;;;;;;22.90;29.90;;;;;;5122624;28;19924;-60
2022/01/05 05:13:40;;;;;;;;;;;23.00;29.70;;;;;;5122570;28;20002;-58
2022/01/05 05:16:06;;;;;;;;;;;23.00;29.70;;;;;;5128193;28;20031;-58
2022/01/05 05:18:32;;;;;;;;;;;22.90;29.80;;;;;;5104325;28;19936;-62
2022/01/05 05:20:57;;;;;;;;;;;23.00;29.60;;;;;;5128013;28;19927;-58
2022/01/05 05:23:23;;;;;;;;;;;23.00;29.60;;;;;;5122549;28;19938;-64
2022/01/05 05:25:49;;;;;;;;;;;23.10;29.50;;;;;;5122515;28;20271;-58
2022/01/05 05:28:15;;;;;;;;;;;22.70;29.60;;;;;;5127395;28;19927;-60
2022/01/05 05:30:40;;;;;;;;;;;23.00;28.90;;;;;;5121886;28;19923;-63
2022/01/05 05:33:06;;;;;;;;;;;22.90;28.60;;;;;;5122069;28;19927;-63
2022/01/05 05:35:32;;;;;;;;;;;23.00;28.20;;;;;;5128172;28;19927;-58
2022/01/05 05:37:58;;;;;;;;;;;22.80;28.30;;;;;;5122338;28;20251;-57
2022/01/05 05:40:24;;;;;;;;;;;23.00;27.80;;;;;;5128020;28;19979;-57
2022/01/05 05:42:49;;;;;;;;;;;23.10;27.70;;;;;;5122253;28;20275;-62
2022/01/05 05:45:15;;;;;;;;;;;23.10;27.50;;;;;;5121683;27;19923;-56
2022/01/05 05:47:41;;;;;;;;;;;22.90;27.60;;;;;;5126781;28;19973;-59
2022/01/05 05:50:07;;;;;;;;;;;22.90;27.40;;;;;;5121585;28;21127;-60
2022/01/05 05:52:33;;;;;;;;;;;23.00;27.30;;;;;;5122069;28;20233;-55
2022/01/05 05:54:58;;;;;;;;;;;23.00;27.10;;;;;;5108014;28;19924;-56
2022/01/05 05:57:24;;;;;;;;;;;23.00;27.10;;;;;;5121909;28;19930;-58
2022/01/05 05:59:50;;;;;;;;;;;23.10;27.00;;;;;;5127339;28;19923;-59
2022/01/05 06:02:16;;;;;;;;;;;23.10;26.90;;;;;;5121927;28;20366;-58
2022/01/05 06:04:42;;;;;;;;;;;23.10;27.00;;;;;;5121688;28;19957;-57
2022/01/05 06:07:07;;;;;;;;;;;23.00;27.00;;;;;;5126782;28;20059;-58
2022/01/05 06:09:33;;;;;;;;;;;22.90;27.10;;;;;;5121311;28;19942;-59
2022/01/05 06:11:59;;;;;;;;;;;23.00;26.90;;;;;;5122012;28;19934;-58
2022/01/05 06:14:25;;;;;;;;;;;23.00;26.90;;;;;;5108785;28;19934;-55
2022/01/05 06:16:50;;;;;;;;;;;23.00;26.90;;;;;;5121708;28;20728;-56
2022/01/05 06:19:16;;;;;;;;;;;23.00;26.90;;;;;;5126150;28;19996;-60
2022/01/05 06:21:44;;;;;;;;;;;23.00;26.90;;;;;;5122912;28;19934;-58
2022/01/05 06:24:10;;;;;;;;;;;22.90;27.00;;;;;;5102579;28;19934;-58
2022/01/05 06:26:36;;;;;;;;;;;22.90;27.00;;;;;;5126680;28;19927;-57
2022/01/05 06:29:02;;;;;;;;;;;23.10;26.80;;;;;;5121346;28;19934;-56
2022/01/05 06:31:27;;;;;;;;;;;23.00;26.90;;;;;;5121636;28;20358;-59
2022/01/05 06:33:53;;;;;;;;;;;22.70;27.20;;;;;;5127187;28;19950;-58
2022/01/05 06:36:19;;;;;;;;;;;22.80;27.00;;;;;;5121573;28;20066;-54
2022/01/05 06:38:45;;;;;;;;;;;22.90;26.90;;;;;;5122760;28;19928;-56
2022/01/05 06:41:10;;;;;;;;;;;23.00;26.80;;;;;;5125532;28;19924;-60
2022/01/05 06:43:36;;;;;;;;;;;23.10;26.80;;;;;;5121105;28;19928;-59
2022/01/05 06:46:02;;;;;;;;;;;22.80;27.00;;;;;;5126154;28;20484;-56
2022/01/05 06:48:28;;;;;;;;;;;22.90;27.00;;;;;;5121110;28;19980;-58
2022/01/05 06:50:53;;;;;;;;;;;22.90;26.90;;;;;;5121112;28;19934;-57
2022/01/05 06:53:19;;;;;;;;;;;23.00;26.80;;;;;;5126735;28;19923;-57
2022/01/05 06:55:45;;;;;;;;;;;23.00;26.80;;;;;;5102744;28;19924;-58
2022/01/05 06:58:11;;;;;;;;;;;22.90;26.90;;;;;;5120536;27;19931;-58
2022/01/05 07:00:36;;;;;;;;;;;22.90;26.80;;;;;;5126129;28;19928;-55
2022/01/05 07:03:04;;;;;;;;;;;23.00;26.70;;;;;;5120743;28;19973;-56
2022/01/05 07:05:30;;;;;;;;;;;23.00;26.70;;;;;;5125735;28;19979;-57
2022/01/05 07:07:56;;;;;;;;;;;23.10;26.60;;;;;;5121119;28;20332;-58
2022/01/05 07:10:22;;;;;;;;;;;23.10;26.70;;;;;;5121096;28;19923;-62
2022/01/05 07:12:48;;;;;;;;;;;23.10;26.80;;;;;;5126440;28;19930;-60
2022/01/05 07:15:14;;;;;;;;;;;23.00;26.80;;;;;;5120783;28;19931;-59
2022/01/05 07:17:40;;;;;;;;;;;23.00;26.80;;;;;;5120621;28;20129;-62
2022/01/05 07:20:06;;;;;;;;;;;23.00;26.70;;;;;;5125955;28;19977;-59
2022/01/05 07:22:32;;;;;;;;;;;23.00;26.80;;;;;;5120074;28;20394;-60
2022/01/05 07:24:58;;;;;;;;;;;23.10;26.70;;;;;;5125767;28;19988;-59
2022/01/05 07:27:24;;;;;;;;;;;23.10;26.60;;;;;;5120555;28;19954;-62
2022/01/05 07:29:50;;;;;;;;;;;22.80;26.90;;;;;;5120505;28;19923;-61
2022/01/05 07:32:15;;;;;;;;;;;22.90;26.70;;;;;;5125944;28;19928;-57
2022/01/05 07:34:41;;;;;;;;;;;23.00;26.50;;;;;;5120584;28;19974;-57
2022/01/05 07:37:07;;;;;;;;;;;23.10;26.30;;;;;;5120322;28;20167;-61
2022/01/05 07:39:33;;;;;;;;;;;22.90;26.40;;;;;;5125655;28;19927;-57
2022/01/05 07:41:58;;;;;;;;;;;22.70;26.60;;;;;;5119646;28;19970;-59
2022/01/05 07:44:24;;;;;;;;;;;22.90;26.20;;;;;;5125718;28;19943;-59
2022/01/05 07:46:50;;;;;;;;;;;23.00;26.00;;;;;;5121010;28;19979;-58
2022/01/05 07:49:16;;;;;;;;;;;23.00;25.90;;;;;;5120461;28;19938;-58
2022/01/05 07:51:41;;;;;;;;;;;23.00;25.70;;;;;;5125820;28;19923;-57
2022/01/05 07:54:07;;;;;;;;;;;23.00;25.60;;;;;;5120383;28;19957;-57
2022/01/05 07:56:33;;;;;;;;;;;23.20;25.30;;;;;;5119896;28;19927;-63
2022/01/05 07:58:59;;;;;;;;;;;22.90;25.30;;;;;;5125183;28;19927;-59
2022/01/05 08:01:24;;;;;;;;;;;23.00;25.10;;;;;;5119988;28;19924;-57
2022/01/05 08:03:50;;;;;;;;;;;23.00;25.00;;;;;;5123620;28;19983;-59
2022/01/05 08:06:17;;;;;;;;;;;23.00;24.90;;;;;;5122949;28;19924;-60
2022/01/05 08:08:46;;;;;;;;;;;23.10;24.80;;;;;;5120250;27;19924;-55
2022/01/05 08:11:12;;;;;;;;;;;23.00;24.90;;;;;;5129067;28;19934;-61
2022/01/05 08:13:38;;;;;;;;;;;23.00;24.90;;;;;;5123548;28;19923;-57
2022/01/05 08:16:04;;;;;;;;;;;23.00;24.90;;;;;;5123388;28;19931;-58
2022/01/05 08:18:29;;;;;;;;;;;23.10;24.80;;;;;;5128623;28;20034;-56
2022/01/05 08:20:55;;;;;;;;;;;22.90;24.90;;;;;;5123692;28;20425;-60
2022/01/05 08:23:21;;;;;;;;;;;23.00;24.70;;;;;;5123727;28;19927;-60
2022/01/05 08:25:47;;;;;;;;;;;22.90;24.80;;;;;;5128944;28;19924;-58
2022/01/05 08:28:13;;;;;;;;;;;23.00;24.70;;;;;;5123294;28;19934;-57
2022/01/05 08:30:39;;;;;;;;;;;23.10;24.60;;;;;;5110454;28;19928;-58
2022/01/05 08:33:05;;;;;;;;;;;23.00;24.40;;;;;;5123258;28;19924;-55
2022/01/05 08:35:31;;;;;;;;;;;22.80;24.50;;;;;;5123062;28;19934;-57
2022/01/05 08:37:57;;;;;;;;;;;22.90;24.30;;;;;;5128524;28;20349;-61
2022/01/05 08:40:23;;;;;;;;;;;22.80;24.30;;;;;;5123420;28;19923;-57
2022/01/05 08:42:49;;;;;;;;;;;23.00;24.00;;;;;;5123556;28;19927;-59
2022/01/05 08:45:15;;;;;;;;;;;22.90;24.00;;;;;;5128476;28;19929;-57
2022/01/05 08:47:47;;;;;;;;;;;23.00;23.90;;;;;;5122881;28;19987;-59
2022/01/05 08:50:13;;;;;;;;;;;23.10;23.70;;;;;;5128033;28;19927;-59
2022/01/05 08:52:39;;;;;;;;;;;23.10;23.70;;;;;;5105177;28;20379;-61
2022/01/05 08:55:05;;;;;;;;;;;23.00;23.60;;;;;;5122818;28;19930;-56
2022/01/05 08:57:31;;;;;;;;;;;23.10;23.40;;;;;;5128489;28;19975;-60
2022/01/05 08:59:57;;;;;;;;;;;23.10;23.30;;;;;;5122977;28;19937;-63
2022/01/05 09:02:22;;;;;;;;;;;23.00;23.30;;;;;;5104720;28;20374;-57
2022/01/05 09:04:51;;;;;;;;;;;23.00;23.20;;;;;;5128301;28;19934;-57
2022/01/05 09:07:18;;;;;;;;;;;23.20;23.00;;;;;;5103040;28;20297;-61
2022/01/05 09:09:44;;;;;;;;;;;23.00;23.10;;;;;;5123767;28;20003;-58
2022/01/05 09:12:10;;;;;;;;;;;22.90;23.20;;;;;;5127220;28;19931;-55
2022/01/05 09:14:35;;;;;;;;;;;22.90;23.10;;;;;;5122185;28;19933;-58
2022/01/05 09:17:01;;;;;;;;;;;23.00;23.10;;;;;;5128297;28;20382;-59
2022/01/05 09:19:28;;;;;;;;;;;23.10;23.00;;;;;;5122587;28;20007;-55
2022/01/05 09:21:54;;;;;;;;;;;23.10;23.00;;;;;;5122320;27;19927;-59
2022/01/05 09:24:20;;;;;;;;;;;23.00;23.00;;;;;;5127678;27;19927;-58
2022/01/05 09:26:45;;;;;;;;;;;22.80;23.10;;;;;;5121920;28;20022;-56
2022/01/05 09:29:11;;;;;;;;;;;23.00;23.00;;;;;;5121953;28;20340;-57
2022/01/05 09:31:37;;;;;;;;;;;23.10;22.80;;;;;;5127293;28;19923;-58
2022/01/05 09:34:03;;;;;;;;;;;22.80;23.00;;;;;;5122046;28;19935;-57
2022/01/05 09:36:36;;;;;;;;;;;22.80;23.00;;;;;;5127688;28;19924;-58
2022/01/05 09:41:56;;;;;;;;;;;23.00;22.80;;;;;;5122445;28;19933;-55
2022/01/05 09:44:26;;;;;;;;;;;23.10;22.70;;;;;;5127347;28;19930;-61
2022/01/05 09:47:07;;;;;;;;;;;23.10;22.60;;;;;;5123544;28;19948;-59
2022/01/05 09:49:33;;;;;;;;;;;22.80;22.80;;;;;;5122084;28;19923;-58
2022/01/05 09:52:03;;;;;;;;;;;22.90;22.70;;;;;;5127286;28;19934;-56
2022/01/05 09:54:29;;;;;;;;;;;22.90;22.60;;;;;;5122518;28;19923;-60
2022/01/05 09:56:55;;;;;;;;;;;23.00;22.60;;;;;;5121950;28;19931;-58
2022/01/05 09:59:21;;;;;;;;;;;22.90;22.60;;;;;;5127480;28;20382;-55
2022/01/05 10:01:47;;;;;;;;;;;22.90;22.70;;;;;;5103807;28;19985;-61
2022/01/05 10:04:14;;;;;;;;;;;23.00;22.60;;;;;;5121703;28;20381;-58
2022/01/05 10:06:40;;;;;;;;;;;23.00;22.40;;;;;;5126856;28;20339;-57
2022/01/05 10:09:06;;;;;;;;;;;23.10;22.30;;;;;;5121583;28;19931;-58
2022/01/05 10:11:31;;;;;;;;;;;22.90;22.30;;;;;;5126612;28;20290;-59
2022/01/05 10:13:57;;;;;;;;;;;23.10;22.20;;;;;;5123055;28;19927;-56
2022/01/05 10:16:24;;;;;;;;;;;23.00;22.20;;;;;;5121624;28;19934;-61
2022/01/05 10:18:49;;;;;;;;;;;23.00;22.20;;;;;;5127142;28;19972;-58
2022/01/05 10:21:15;;;;;;;;;;;22.80;22.00;;;;;;5121733;28;19931;-56
2022/01/05 10:23:42;;;;;;;;;;;22.90;21.80;;;;;;5121648;28;19924;-57
2022/01/05 10:26:17;;;;;;;;;;;23.00;21.50;;;;;;5126815;28;20289;-55
2022/01/05 10:28:42;;;;;;;;;;;23.00;21.60;;;;;;5121171;28;19927;-58
2022/01/05 10:31:37;;;;;;;;;;;23.00;21.40;;;;;;5121855;28;19946;-56
2022/01/05 10:34:13;;;;;;;;;;;23.00;21.30;;;;;;5104506;28;19944;-59
2022/01/05 10:36:46;;;;;;;;;;;22.80;21.30;;;;;;5109284;28;19930;-58
2022/01/05 10:39:12;;;;;;;;;;;23.00;21.10;;;;;;5121669;28;19934;-58
2022/01/05 10:41:38;;;;;;;;;;;23.00;21.00;;;;;;5127049;28;20367;-57
2022/01/05 10:44:14;;;;;;;;;;;23.00;20.80;;;;;;5121624;28;20018;-53
2022/01/05 10:46:41;;;;;;;;;;;23.00;20.80;;;;;;5121182;28;20140;-60
2022/01/05 10:49:07;;;;;;;;;;;23.00;20.80;;;;;;5126971;28;19946;-59
2022/01/05 10:51:34;;;;;;;;;;;22.80;20.90;;;;;;5121550;28;19931;-56
2022/01/05 10:54:19;;;;;;;;;;;22.90;20.70;;;;;;5107655;28;19928;-57
2022/01/05 10:56:45;;;;;;;;;;;22.90;20.70;;;;;;5125250;28;19931;-64
2022/01/05 10:59:13;;;;;;;;;;;23.00;20.60;;;;;;5121438;28;20411;-56
2022/01/05 11:01:41;;;;;;;;;;;22.90;20.60;;;;;;5126839;28;19933;-55
2022/01/05 11:04:22;;;;;;;;;;;23.00;20.60;;;;;;5120949;28;19967;-64
2022/01/05 11:06:58;;;;;;;;;;;23.00;20.50;;;;;;5121288;28;19923;-56
2022/01/05 11:09:24;;;;;;;;;;;23.00;20.50;;;;;;5126851;28;20357;-60
2022/01/05 11:11:50;;;;;;;;;;;22.80;20.40;;;;;;5121385;28;19934;-58
2022/01/05 11:14:29;;;;;;;;;;;22.80;20.40;;;;;;5118680;28;20289;-60
2022/01/05 11:16:55;;;;;;;;;;;22.90;20.30;;;;;;5126333;28;19952;-56
2022/01/05 11:19:21;;;;;;;;;;;23.00;20.10;;;;;;5101943;28;20336;-57
2022/01/05 11:22:06;;;;;;;;;;;23.10;20.10;;;;;;5120732;28;20018;-61
2022/01/05 11:24:36;;;;;;;;;;;23.10;20.10;;;;;;5126391;28;19923;-58
2022/01/05 11:27:02;;;;;;;;;;;22.80;20.30;;;;;;5120760;28;19927;-56
2022/01/05 11:29:28;;;;;;;;;;;22.90;20.20;;;;;;5121349;28;20314;-46
2022/01/05 11:31:56;;;;;;;;;;;21.20;21.60;;;;;;5124258;28;19934;-44
2022/01/05 11:34:22;;;;;;;;;;;19.70;23.60;;;;;;5120768;28;19928;-45
2022/01/05 11:36:47;;;;;;;;;;;21.70;21.40;;;;;;5123257;28;20393;-50
2022/01/05 11:39:13;;;;;;;;;;;22.40;20.80;;;;;;5124135;28;20288;-45
2022/01/05 11:41:40;;;;;;;;;;;22.60;20.50;;;;;;5120566;28;20379;-46
2022/01/05 11:44:06;;;;;;;;;;;22.80;20.50;;;;;;5126216;27;19931;-51
2022/01/05 11:46:35;;;;;;;;;;;21.60;21.80;;;;;;5121084;28;19970;-48
2022/01/05 11:49:07;;;;;;;;;;;20.50;23.10;;;;;;5120866;28;19923;-48
2022/01/05 11:51:42;;;;;;;;;;;21.80;21.60;;;;;;5123882;28;19929;-48
2022/01/05 11:54:12;;;;;;;;;;;22.50;21.00;;;;;;5120380;28;19934;-47
2022/01/05 11:56:48;;;;;;;;;;;22.80;20.80;;;;;;5120438;28;19923;-50
2022/01/05 11:59:19;;;;;;;;;;;22.70;20.70;;;;;;5107658;28;19923;-49
2022/01/05 12:01:55;;;;;;;;;;;19.10;24.40;;;;;;5102139;28;19937;-51
2022/01/05 12:04:22;;;;;;;;;;;21.70;21.90;;;;;;5120471;28;20521;-55
2022/01/05 12:06:48;;;;;;;;;;;22.40;21.10;;;;;;5125968;28;20286;-54
2022/01/05 12:09:23;;;;;;;;;;;22.70;20.90;;;;;;5118229;28;19934;-52
2022/01/05 12:11:49;;;;;;;;;;;22.00;21.50;;;;;;5120566;28;20279;-50
2022/01/05 12:14:21;;;;;;;;;;;20.90;22.80;;;;;;5125616;28;19942;-48
2022/01/05 12:16:59;;;;;;;;;;;22.00;21.70;;;;;;5120119;28;19923;-47
2022/01/05 12:19:25;;;;;;;;;;;22.50;21.20;;;;;;5121699;28;19923;-56
2022/01/05 12:21:52;;;;;;;;;;;22.90;20.90;;;;;;5124308;28;20386;-53
2022/01/05 12:24:18;;;;;;;;;;;22.50;21.00;;;;;;5120399;28;19929;-49
2022/01/05 12:26:43;;;;;;;;;;;19.60;23.90;;;;;;5124872;28;19927;-55
2022/01/05 12:29:09;;;;;;;;;;;21.40;22.00;;;;;;5118829;28;19927;-50
2022/01/05 12:31:47;;;;;;;;;;;22.30;21.00;;;;;;5120127;28;20026;-53
2022/01/05 12:34:13;;;;;;;;;;;22.80;20.60;;;;;;5125555;28;19927;-57
2022/01/05 12:36:39;;;;;;;;;;;22.50;20.50;;;;;;5119681;28;19923;-52
2022/01/05 12:39:05;;;;;;;;;;;19.40;23.80;;;;;;5120157;28;20591;-50
2022/01/05 12:41:32;;;;;;;;;;;21.80;21.40;;;;;;5125139;28;19934;-53
2022/01/05 12:43:58;;;;;;;;;;;22.50;20.70;;;;;;5119879;28;19925;-51
2022/01/05 12:46:35;;;;;;;;;;;22.80;20.40;;;;;;5121076;28;22423;-60
2022/01/05 12:49:03;;;;;;;;;;;20.90;21.80;;;;;;5125419;28;19930;-49
2022/01/05 12:51:32;;;;;;;;;;;21.30;21.90;;;;;;5119731;28;20363;-53
2022/01/05 12:54:18;;;;;;;;;;;22.20;20.90;;;;;;5125264;28;19937;-54
2022/01/05 12:56:56;;;;;;;;;;;22.70;20.40;;;;;;5127610;27;20386;-51
2022/01/05 12:59:27;;;;;;;;;;;23.00;20.30;;;;;;5123688;28;19929;-53
2022/01/05 13:01:53;;;;;;;;;;;20.20;22.60;;;;;;5128121;28;19927;-56
2022/01/05 13:04:23;;;;;;;;;;;21.10;21.70;;;;;;5122080;28;19972;-49
2022/01/05 13:06:49;;;;;;;;;;;22.20;20.70;;;;;;5123292;28;19924;-54
2022/01/05 13:09:21;;;;;;;;;;;22.70;20.30;;;;;;5128616;28;19985;-53
2022/01/05 13:11:50;;;;;;;;;;;23.00;20.10;;;;;;5104741;28;19932;-57
2022/01/05 13:14:15;;;;;;;;;;;20.10;22.60;;;;;;5122782;28;20293;-50
2022/01/05 13:16:42;;;;;;;;;;;21.20;21.80;;;;;;5128706;28;20010;-49
2022/01/05 13:19:14;;;;;;;;;;;22.20;20.80;;;;;;5122994;28;19935;-51
2022/01/05 13:21:46;;;;;;;;;;;22.60;20.40;;;;;;5123050;28;20218;-51
2022/01/05 13:24:11;;;;;;;;;;;22.90;20.20;;;;;;5126363;28;19999;-53
2022/01/05 13:26:56;;;;;;;;;;;22.10;20.90;;;;;;5122937;28;19927;-49
2022/01/05 13:29:22;;;;;;;;;;;20.40;22.80;;;;;;5122508;28;19995;-50
2022/01/05 13:31:55;;;;;;;;;;;22.10;21.00;;;;;;5128114;28;19935;-49
2022/01/05 13:34:44;;;;;;;;;;;22.60;20.50;;;;;;5122754;28;19968;-51
2022/01/05 13:37:10;;;;;;;;;;;23.00;20.20;;;;;;5122955;28;19938;-53
2022/01/05 13:39:43;;;;;;;;;;;20.30;22.10;;;;;;5128145;28;20411;-52
2022/01/05 13:42:13;;;;;;;;;;;21.30;21.50;;;;;;5102488;28;20398;-56
2022/01/05 13:44:40;;;;;;;;;;;22.30;20.50;;;;;;5122812;28;19975;-57
2022/01/05 13:47:06;;;;;;;;;;;22.70;20.10;;;;;;5127918;28;19947;-56
2022/01/05 13:49:32;;;;;;;;;;;22.60;20.10;;;;;;5122536;28;19928;-54
2022/01/05 13:52:05;;;;;;;;;;;19.40;23.20;;;;;;5127783;28;19963;-55
2022/01/05 13:54:49;;;;;;;;;;;21.70;21.10;;;;;;5122690;28;19931;-55
2022/01/05 13:57:25;;;;;;;;;;;22.50;20.40;;;;;;5122729;28;19932;-56
2022/01/05 13:59:56;;;;;;;;;;;22.90;19.90;;;;;;5125675;28;20777;-56
2022/01/05 14:02:22;;;;;;;;;;;20.90;21.40;;;;;;5122733;28;20278;-56
2022/01/05 14:04:54;;;;;;;;;;;21.30;21.40;;;;;;5102807;28;19923;-53
2022/01/05 14:07:21;;;;;;;;;;;22.30;20.40;;;;;;5126315;27;19976;-52
2022/01/05 14:10:05;;;;;;;;;;;22.70;20.00;;;;;;5122038;28;20367;-58
2022/01/05 14:12:35;;;;;;;;;;;22.00;20.70;;;;;;5122614;28;19924;-52
2022/01/05 14:15:01;;;;;;;;;;;21.00;21.70;;;;;;5127418;28;19931;-53
2022/01/05 14:17:31;;;;;;;;;;;22.20;20.50;;;;;;5121955;28;19928;-58
2022/01/05 14:20:12;;;;;;;;;;;22.70;20.10;;;;;;5120172;28;19953;-56
2022/01/05 14:22:38;;;;;;;;;;;23.00;19.90;;;;;;5127582;28;20454;-54